ENQU weather

Huldra Platform
Norway

Public forecast

Using degrees Celsius for public forecast. Weather courtesy of forecast.io.

METAR (pilot weather report)

Closest report is Oseberg A Platform, 22.5 nm (41.6 km) SSE. Retrieved 2019/05/19 18:20 UTC (0 seconds ago):

ENOA 191820Z 12008KT 9999 BKN020 12/10 Q1012 W///S/

TAF (pilot weather forecast)

Closest forecast is Oseberg A Platform, 22.5 nm (41.6 km) SSE. Retrieved 2019/05/19 18:57 UTC (0 seconds ago):

TAF ENOA 191700Z 1918/2018 VRB07KT 9999 SCT020 TEMPO 1918/2006 4000 BR BKN008 BECMG 2009/2012 36015KT